aviador You're here:

LFPB Decoded Metar

PARIS LE BOURGET in FRANCE
Report Time2018-02-22 08:30:00
UTC Time2018-02-22 08:44:41
Flight Rules ifr IFR
Wind030° at 08 kt
W.Decomp.*RWY 03: 8.0 kt HW 0.1 kt RCW
RWY 07: 6.2 kt HW 5 kt LCW
RWY 09: 4.1 kt HW 6.9 kt LCW
W.Rank030° ranks 12
Current wind is above 030° avg. (5.1)
Visibility4600 m
Phenomena:Mist
Clouds:N/A
Expected CloudBase > 1,200 ft AGL from Temp-Dew spread
CeilingNone
Temp00°C (ISA -15)
Dew Point-3°C (80% RH)
AAT-5.3°C
QNH1020 hPa
Density Alt-1,739 ft
Elevation213 ft
Report Wrong Elevation
Raw Report
LFPB 220830Z AUTO 03008KT 350V050 4600 BR NSC M00/M03 Q1020
NOSIG=

Extra information for LFPB:More info

Metar Taf Metar & Taf Last 4 Metars F.Rules Stats Wind Profile Meteogram Temp Stats Airport Information Weather charts Add Link Nearby VenuesMetar ALERT Operation Metar Decoded Social comments